Time;durP1;ratioP1;P1;durP2;ratioP2;P2;SDS_P1;SDS_P2;PMS_P1;PMS_P2;Temp;Humidity;BMP_temperature;BMP_pressure;BME280_temperature;BME280_humidity;BME280_pressure;Samples;Min_cycle;Max_cycle;Signal;HPM_P1;HPM_P2
2021/04/28 00:00:22;;;;;;;5.10;4.60;;;;;;;5.16;76.60;101079.22;1778548;80;20907;-77
2021/04/28 00:02:51;;;;;;;4.20;3.35;;;;;;;5.16;76.37;101070.58;1778673;80;21468;-78
2021/04/28 00:05:20;;;;;;;6.15;4.70;;;;;;;5.12;76.21;101075.01;1778605;80;21326;-77
2021/04/28 00:07:48;;;;;;;5.03;4.42;;;;;;;5.04;76.30;101069.63;1778572;80;21399;-78
2021/04/28 00:10:20;;;;;;;4.22;3.83;;;;;;;5.00;76.66;101072.76;1778494;80;21054;-78
2021/04/28 00:12:48;;;;;;;4.95;4.45;;;;;;;4.98;76.64;101070.69;1778627;80;21357;-78
2021/04/28 00:15:19;;;;;;;6.40;4.87;;;;;;;4.96;76.53;101072.02;1778611;80;21448;-77
2021/04/28 00:17:47;;;;;;;4.42;4.03;;;;;;;4.92;76.70;101071.70;1778545;80;21361;-80
2021/04/28 00:20:20;;;;;;;4.35;3.92;;;;;;;4.88;76.52;101069.23;1778345;80;20954;-78
2021/04/28 00:22:48;;;;;;;8.95;5.62;;;;;;;4.84;76.55;101067.62;1778550;80;20907;-79
2021/04/28 00:25:21;;;;;;;9.30;7.12;;;;;;;4.83;77.02;101067.23;1778479;80;21022;-78
2021/04/28 00:27:49;;;;;;;10.40;6.10;;;;;;;4.84;77.39;101073.66;1778614;80;20911;-79
2021/04/28 00:30:19;;;;;;;10.15;5.12;;;;;;;4.84;77.32;101073.66;1775773;79;21497;-79
2021/04/28 00:32:49;;;;;;;8.93;6.45;;;;;;;4.84;77.32;101068.46;1769970;80;20935;-81
2021/04/28 00:35:18;;;;;;;7.55;5.83;;;;;;;4.82;77.22;101074.15;1770074;79;21022;-79
2021/04/28 00:37:46;;;;;;;9.30;5.42;;;;;;;4.78;77.17;101076.46;1770049;79;21436;-80
2021/04/28 00:40:24;;;;;;;8.18;6.85;;;;;;;4.75;77.03;101076.08;1770094;81;21049;-79
2021/04/28 00:42:52;;;;;;;9.33;7.42;;;;;;;4.71;76.93;101080.10;1770140;80;22233;-80
2021/04/28 00:45:21;;;;;;;14.70;6.65;;;;;;;4.64;76.91;101076.83;1770111;81;20979;-80
2021/04/28 00:47:49;;;;;;;9.45;7.25;;;;;;;4.57;76.89;101079.20;1770092;80;20959;-79
2021/04/28 00:50:20;;;;;;;7.40;6.55;;;;;;;4.52;77.06;101085.81;1770029;79;21551;-79
2021/04/28 00:52:49;;;;;;;9.68;6.47;;;;;;;4.49;76.95;101083.73;1770119;80;20935;-80
2021/04/28 00:55:17;;;;;;;6.62;5.85;;;;;;;4.44;76.84;101084.32;1770080;79;21365;-77
2021/04/28 00:57:45;;;;;;;7.17;6.33;;;;;;;4.38;76.66;101087.95;1769892;81;21006;-77
2021/04/28 01:00:16;;;;;;;7.92;6.10;;;;;;;4.31;76.57;101087.27;1770032;80;21070;-76
2021/04/28 01:02:45;;;;;;;6.62;5.75;;;;;;;4.25;76.82;101090.02;1770027;80;20994;-77
2021/04/28 01:05:14;;;;;;;9.33;6.30;;;;;;;4.20;77.23;101091.85;1770075;81;21752;-77
2021/04/28 01:07:44;;;;;;;6.83;6.12;;;;;;;4.18;77.34;101096.68;1770101;81;22386;-76
2021/04/28 01:10:19;;;;;;;7.40;5.90;;;;;;;4.12;77.24;101095.11;1770005;81;21045;-76
2021/04/28 01:12:47;;;;;;;6.80;5.85;;;;;;;4.08;77.18;101098.67;1770040;80;20951;-75
2021/04/28 01:15:21;;;;;;;5.67;5.22;;;;;;;4.04;76.99;101108.72;1769930;81;21460;-76
2021/04/28 01:17:51;;;;;;;;;;;;;;;3.97;76.83;101104.13;1772122;80;21460;-77
2021/04/28 01:20:20;;;;;;;7.60;6.83;;;;;;;3.88;76.93;101107.80;1770068;79;21806;-76
2021/04/28 01:22:49;;;;;;;5.97;5.37;;;;;;;3.83;77.05;101112.70;1770828;79;20958;-76
2021/04/28 01:25:22;;;;;;;5.20;4.70;;;;;;;3.79;77.12;101109.33;1771382;81;20963;-76
2021/04/28 01:28:09;;;;;;;15.30;10.78;;;;;;;3.74;76.93;101108.59;1770699;81;20938;-76
2021/04/28 01:31:04;;;;;;;8.10;7.05;;;;;;;3.68;76.87;101110.03;1770051;80;21326;-75
2021/04/28 01:33:36;;;;;;;9.20;6.75;;;;;;;3.59;76.84;101103.31;1769966;80;21364;-78
2021/04/28 01:36:11;;;;;;;6.90;6.28;;;;;;;3.53;76.78;101110.80;1769989;80;21492;-78
2021/04/28 01:38:41;;;;;;;8.08;7.28;;;;;;;3.47;76.84;101108.34;1770232;81;20911;-78
2021/04/28 01:41:09;;;;;;;8.98;8.08;;;;;;;3.41;76.99;101107.63;1750802;80;20951;-78
2021/04/28 01:43:41;;;;;;;9.13;7.62;;;;;;;3.36;77.12;101106.44;1770122;81;20946;-78
2021/04/28 01:46:11;;;;;;;9.65;7.50;;;;;;;3.32;77.24;101115.16;1769958;81;21805;-79
2021/04/28 01:48:41;;;;;;;8.25;5.95;;;;;;;3.28;77.39;101123.44;1769881;80;20947;-77
2021/04/28 01:51:11;;;;;;;9.18;8.15;;;;;;;3.25;77.44;101121.37;1769909;81;20911;-78
2021/04/28 01:53:40;;;;;;;8.70;7.67;;;;;;;3.23;77.31;101132.22;1769926;79;20939;-77
2021/04/28 01:56:09;;;;;;;6.90;6.30;;;;;;;3.18;77.35;101132.31;1769942;80;20923;-77
2021/04/28 01:58:45;;;;;;;5.35;4.85;;;;;;;3.15;77.57;101137.55;1768011;80;22701;-77
2021/04/28 02:01:27;;;;;;;7.08;6.37;;;;;;;3.14;77.61;101125.94;1713109;81;21006;-76
2021/04/28 02:03:56;;;;;;;9.23;7.45;;;;;;;3.11;77.68;101135.48;1769924;79;21014;-76
2021/04/28 02:06:25;;;;;;;7.15;6.45;;;;;;;3.10;77.78;101136.34;1769966;81;20998;-77
2021/04/28 02:08:55;;;;;;;9.30;8.38;;;;;;;3.08;77.86;101137.27;1770055;81;21442;-76
2021/04/28 02:11:24;;;;;;;13.00;9.25;;;;;;;3.06;77.93;101141.63;1769916;80;21198;-77
2021/04/28 02:13:52;;;;;;;8.95;8.03;;;;;;;3.03;77.89;101143.00;1769853;81;21373;-77
2021/04/28 02:16:27;;;;;;;11.88;9.38;;;;;;;3.03;78.01;101148.17;1766524;81;21002;-76
2021/04/28 02:18:57;;;;;;;9.83;8.60;;;;;;;3.01;78.09;101152.53;1770002;80;21014;-77
2021/04/28 02:21:26;;;;;;;9.88;8.88;;;;;;;3.00;78.48;101150.39;1770196;79;20947;-79
2021/04/28 02:23:59;;;;;;;10.82;9.13;;;;;;;3.00;78.49;101152.10;1751700;81;21254;-79
2021/04/28 02:26:28;;;;;;;9.90;8.65;;;;;;;3.01;78.74;101161.60;1770034;81;21006;-78
2021/04/28 02:28:55;;;;;;;10.15;9.15;;;;;;;3.04;78.72;101158.94;1770099;80;21022;-78
2021/04/28 02:31:24;;;;;;;13.78;10.43;;;;;;;3.04;78.66;101165.41;1773824;80;21510;-77
2021/04/28 02:33:53;;;;;;;11.12;9.28;;;;;;;3.03;78.54;101163.27;1778094;80;20973;-77
2021/04/28 02:36:43;;;;;;;12.28;9.50;;;;;;;3.02;78.49;101170.62;1778759;80;21368;-78
2021/04/28 02:39:44;;;;;;;12.95;9.68;;;;;;;3.00;78.58;101172.41;1774246;80;20995;-77
2021/04/28 02:42:12;;;;;;;11.53;9.35;;;;;;;2.99;78.84;101175.87;1778526;80;20938;-79
2021/04/28 02:44:40;;;;;;;10.38;9.25;;;;;;;2.98;79.01;101183.25;1778457;80;20950;-77
2021/04/28 02:47:11;;;;;;;12.00;10.43;;;;;;;2.98;79.10;101179.77;1753533;80;20943;-78
2021/04/28 02:49:42;;;;;;;10.70;9.60;;;;;;;3.00;79.16;101190.97;1778323;79;21439;-79
2021/04/28 02:52:14;;;;;;;11.18;10.03;;;;;;;3.00;79.29;101197.03;1736935;80;21563;-79
2021/04/28 02:54:46;;;;;;;12.53;11.22;;;;;;;3.01;79.23;101191.39;1778611;80;20974;-78
2021/04/28 02:57:16;;;;;;;12.68;9.03;;;;;;;3.03;79.26;101202.59;1778578;80;20994;-81
2021/04/28 02:59:44;;;;;;;12.95;8.65;;;;;;;3.01;79.17;101201.31;1752808;80;20914;-79
2021/04/28 03:02:13;;;;;;;11.28;8.95;;;;;;;3.01;79.21;101200.02;1778592;80;21352;-80
2021/04/28 03:04:41;;;;;;;9.98;8.83;;;;;;;3.02;79.15;101210.77;1778610;80;20962;-80
2021/04/28 03:07:27;;;;;;;11.20;9.95;;;;;;;3.04;79.08;101210.30;1778690;80;21017;-81
2021/04/28 03:09:56;;;;;;;12.60;9.50;;;;;;;3.06;78.78;101223.24;1778655;80;21005;-79
2021/04/28 03:12:24;;;;;;;13.55;11.03;;;;;;;3.05;78.59;101218.51;1779017;80;21034;-79
2021/04/28 03:14:54;;;;;;;11.40;9.90;;;;;;;3.05;78.47;101228.88;1777928;80;21382;-79
2021/04/28 03:17:22;;;;;;;13.62;10.15;;;;;;;3.06;78.37;101233.16;1779309;80;20935;-79
2021/04/28 03:19:54;;;;;;;10.35;8.93;;;;;;;3.06;78.32;101236.20;1781342;80;20927;-77
2021/04/28 03:22:23;;;;;;;9.55;8.73;;;;;;;3.05;78.35;101247.45;1781121;80;21332;-77
2021/04/28 03:24:55;;;;;;;10.03;8.35;;;;;;;3.05;78.39;101245.72;1779697;80;20950;-79
2021/04/28 03:27:24;;;;;;;9.73;8.83;;;;;;;3.08;78.49;101253.42;1778621;80;21357;-79
2021/04/28 03:29:57;;;;;;;10.40;8.93;;;;;;;3.13;78.54;101261.55;1778478;80;20994;-79
2021/04/28 03:32:25;;;;;;;10.15;8.40;;;;;;;3.17;78.44;101261.91;1772119;80;21566;-79
2021/04/28 03:35:03;;;;;;;8.83;7.95;;;;;;;3.24;78.45;101269.52;1767765;79;20934;-80
2021/04/28 03:37:33;;;;;;;9.25;7.83;;;;;;;3.33;78.67;101273.68;1770248;81;21495;-80
2021/04/28 03:40:02;;;;;;;10.63;9.60;;;;;;;3.41;78.71;101266.62;1770123;79;21387;-80
2021/04/28 03:42:30;;;;;;;10.43;9.35;;;;;;;3.50;78.57;101265.13;1769934;79;20993;-78
2021/04/28 03:44:58;;;;;;;11.33;9.43;;;;;;;3.58;78.63;101266.29;1770005;79;20938;-79
2021/04/28 03:47:30;;;;;;;9.00;8.15;;;;;;;3.67;78.84;101269.98;1770010;79;21021;-77
2021/04/28 03:49:59;;;;;;;7.87;7.10;;;;;;;3.79;79.04;101279.69;1770025;79;20974;-78
2021/04/28 03:52:29;;;;;;;8.25;7.53;;;;;;;3.89;79.23;101277.28;1770134;79;21419;-77
2021/04/28 03:55:16;;;;;;;8.68;7.87;;;;;;;4.03;79.44;101271.82;1769939;79;21041;-77
2021/04/28 03:57:44;;;;;;;11.15;7.65;;;;;;;4.23;79.61;101282.59;1770006;81;21576;-77
2021/04/28 04:00:13;;;;;;;7.70;7.10;;;;;;;4.46;79.40;101278.60;1769967;81;20954;-77
2021/04/28 04:02:44;;;;;;;6.78;6.15;;;;;;;4.72;79.05;101276.22;1770147;80;21503;-78
2021/04/28 04:05:33;;;;;;;7.00;6.35;;;;;;;4.99;78.68;101285.05;1766535;81;22307;-78
2021/04/28 04:08:04;;;;;;;6.12;5.55;;;;;;;5.28;77.95;101282.11;1742969;80;20935;-80
2021/04/28 04:10:37;;;;;;;5.62;4.87;;;;;;;5.58;77.72;101267.41;1748458;80;20963;-79
2021/04/28 04:13:07;;;;;;;6.20;5.60;;;;;;;5.86;76.58;101263.14;1769679;80;21038;-78
2021/04/28 04:15:37;;;;;;;6.00;5.50;;;;;;;6.03;75.60;101264.81;1769991;81;21031;-78
2021/04/28 04:18:07;;;;;;;6.08;5.53;;;;;;;6.26;74.85;101271.91;1769933;79;23110;-78
2021/04/28 04:20:40;;;;;;;8.15;7.20;;;;;;;6.43;73.93;101275.28;1767953;79;20971;-79
2021/04/28 04:23:10;;;;;;;6.60;5.15;;;;;;;6.61;73.64;101271.23;1768807;80;20942;-78
2021/04/28 04:25:40;;;;;;;5.37;4.95;;;;;;;6.94;73.18;101276.22;1768886;79;20942;-78
2021/04/28 04:28:10;;;;;;;4.45;4.05;;;;;;;7.22;72.31;101275.62;1769552;80;21504;-79
2021/04/28 04:30:52;;;;;;;4.97;4.47;;;;;;;7.51;71.44;101278.95;1692124;83;21449;-77
2021/04/28 04:33:39;;;;;;;4.92;4.47;;;;;;;7.77;70.16;101276.68;1692048;84;21684;-75
2021/04/28 04:36:26;;;;;;;5.50;5.10;;;;;;;8.07;69.62;101279.89;1692232;84;20985;-73
2021/04/28 04:39:13;;;;;;;4.37;4.08;;;;;;;8.39;68.93;101288.67;1692156;84;20986;-74
2021/04/28 04:42:00;;;;;;;4.87;4.40;;;;;;;8.82;67.25;101287.78;1830106;76;27804;-74
2021/04/28 04:44:47;;;;;;;3.95;3.55;;;;;;;9.17;65.97;101291.13;1816720;78;20962;-74
2021/04/28 04:47:15;;;;;;;4.30;3.92;;;;;;;9.65;64.92;101292.03;1817933;78;22277;-75
2021/04/28 04:49:43;;;;;;;3.40;3.20;;;;;;;9.97;63.58;101293.63;1817941;79;20950;-72
2021/04/28 04:52:11;;;;;;;4.37;4.05;;;;;;;10.28;61.88;101297.42;1818043;79;20927;-74
2021/04/28 04:54:40;;;;;;;3.60;3.30;;;;;;;10.55;61.13;101300.05;1818086;78;21432;-74
2021/04/28 04:57:08;;;;;;;4.17;3.87;;;;;;;10.92;60.80;101306.09;1818039;79;20997;-74
2021/04/28 04:59:36;;;;;;;4.67;4.28;;;;;;;11.32;60.27;101306.68;1818125;79;22280;-74
2021/04/28 05:02:04;;;;;;;4.60;4.30;;;;;;;11.75;58.93;101310.97;1817927;79;20926;-79
2021/04/28 05:04:34;;;;;;;5.97;5.47;;;;;;;12.13;57.53;101317.25;1818085;77;20926;-74
2021/04/28 05:07:01;;;;;;;3.85;3.55;;;;;;;12.42;56.15;101315.62;1818021;77;20930;-76
2021/04/28 05:09:30;;;;;;;4.40;4.10;;;;;;;12.65;55.10;101324.02;1818028;78;20989;-74
2021/04/28 05:11:59;;;;;;;4.20;3.80;;;;;;;12.78;54.01;101328.95;1817944;77;21368;-74
2021/04/28 05:14:28;;;;;;;3.77;3.47;;;;;;;13.01;53.71;101325.44;1817902;79;20942;-74
2021/04/28 05:16:56;;;;;;;5.60;4.15;;;;;;;13.20;53.33;101339.66;1817874;79;21017;-75
2021/04/28 05:19:25;;;;;;;4.12;3.72;;;;;;;13.41;52.44;101337.10;1817946;78;21010;-73
2021/04/28 05:22:30;;;;;;;4.20;3.80;;;;;;;13.66;52.26;101334.28;1817868;78;20923;-74
2021/04/28 05:25:00;;;;;;;5.90;4.05;;;;;;;14.35;51.39;101341.81;1813608;79;21813;-74
2021/04/28 05:27:30;;;;;;;4.33;3.65;;;;;;;14.35;51.39;101341.81;1817782;78;20998;-73
2021/04/28 05:29:58;;;;;;;3.40;3.12;;;;;;;14.70;49.90;101346.16;1817910;77;20938;-73
2021/04/28 05:32:27;;;;;;;3.17;2.98;;;;;;;15.06;49.49;101343.81;1817944;77;21009;-74
2021/04/28 05:34:55;;;;;;;3.27;3.08;;;;;;;15.30;48.02;101339.50;1818026;77;21320;-73
2021/04/28 05:37:23;;;;;;;5.85;3.30;;;;;;;15.48;47.42;101347.96;1817943;78;22369;-75
2021/04/28 05:39:52;;;;;;;2.70;2.50;;;;;;;15.57;47.08;101345.64;1817832;78;20934;-75
2021/04/28 05:42:19;;;;;;;5.28;3.45;;;;;;;15.80;47.03;101346.22;1830396;78;20985;-74
2021/04/28 05:44:49;;;;;;;2.67;2.47;;;;;;;16.04;44.98;101348.09;1830401;78;21380;-74
2021/04/28 05:47:17;;;;;;;3.42;2.87;;;;;;;16.04;44.38;101347.61;1830445;78;21479;-75
2021/04/28 05:49:45;;;;;;;3.50;3.10;;;;;;;16.14;43.41;101349.10;1830359;77;21326;-76
2021/04/28 05:52:14;;;;;;;3.58;2.92;;;;;;;16.05;44.22;101344.02;1829992;78;20930;-75
2021/04/28 05:54:42;;;;;;;3.25;2.60;;;;;;;16.14;43.98;101349.97;1829782;77;20926;-75
2021/04/28 05:57:12;;;;;;;2.92;2.72;;;;;;;16.26;43.39;101344.75;1825769;78;21037;-77
2021/04/28 05:59:40;;;;;;;3.47;2.52;;;;;;;16.44;43.34;101350.02;1802596;78;20998;-75
2021/04/28 06:02:08;;;;;;;2.75;2.55;;;;;;;16.68;42.79;101353.16;1829713;78;22335;-76
2021/04/28 06:04:37;;;;;;;3.02;2.60;;;;;;;16.90;40.41;101349.30;1829717;78;20994;-74
2021/04/28 06:07:06;;;;;;;2.90;2.70;;;;;;;16.62;41.17;101345.17;1829753;77;20938;-74
2021/04/28 06:09:34;;;;;;;3.27;2.15;;;;;;;16.61;42.04;101355.42;1829597;77;20926;-76
2021/04/28 06:12:05;;;;;;;3.27;2.52;;;;;;;16.66;40.65;101354.59;1829808;77;20911;-73
2021/04/28 06:14:34;;;;;;;3.00;2.65;;;;;;;16.77;40.42;101348.02;1829882;78;22241;-75
2021/04/28 06:17:05;;;;;;;2.72;2.52;;;;;;;16.89;40.99;101358.68;1829721;78;21356;-76
2021/04/28 06:19:34;;;;;;;3.42;2.62;;;;;;;17.05;41.23;101358.37;1829748;78;20930;-74
2021/04/28 06:22:02;;;;;;;3.08;2.75;;;;;;;17.20;40.32;101359.37;1829788;78;21344;-74
2021/04/28 06:24:32;;;;;;;3.20;2.65;;;;;;;17.18;39.31;101360.45;1828945;77;21151;-73
2021/04/28 06:27:01;;;;;;;2.50;2.40;;;;;;;17.25;40.37;101360.34;1829782;78;21356;-74
2021/04/28 06:29:29;;;;;;;2.75;2.55;;;;;;;17.44;40.93;101361.61;1829614;77;21008;-76
2021/04/28 06:32:00;;;;;;;2.33;2.12;;;;;;;17.73;39.83;101356.19;1829716;78;21057;-76
2021/04/28 06:34:28;;;;;;;2.62;2.42;;;;;;;18.05;37.21;101363.92;1829763;78;20949;-75
2021/04/28 06:36:57;;;;;;;2.80;2.60;;;;;;;18.16;37.96;101362.59;1829711;77;21044;-74
2021/04/28 06:39:26;;;;;;;2.77;2.27;;;;;;;18.42;37.29;101369.78;1829910;78;21364;-74
2021/04/28 06:41:54;;;;;;;2.85;2.50;;;;;;;18.57;37.12;101364.55;1820673;77;20954;-74
2021/04/28 06:44:23;;;;;;;2.50;2.30;;;;;;;18.73;36.70;101373.42;1817297;77;20958;-75
2021/04/28 06:46:51;;;;;;;2.37;2.17;;;;;;;18.74;35.61;101373.80;1817344;79;21436;-74
2021/04/28 06:49:19;;;;;;;2.58;2.37;;;;;;;18.82;36.87;101374.52;1817400;79;20994;-75
2021/04/28 06:51:48;;;;;;;2.67;2.40;;;;;;;19.00;36.64;101374.80;1817652;77;20990;-77
2021/04/28 06:54:16;;;;;;;2.37;2.17;;;;;;;19.25;35.32;101377.09;1817385;78;20946;-74
2021/04/28 06:56:46;;;;;;;2.52;2.33;;;;;;;19.46;35.02;101374.89;1817290;78;21345;-75
2021/04/28 06:59:17;;;;;;;2.62;2.42;;;;;;;19.67;35.36;101381.04;1817309;77;21144;-74
2021/04/28 07:01:51;;;;;;;2.37;2.17;;;;;;;19.80;34.83;101382.16;1817295;79;20942;-73
2021/04/28 07:04:19;;;;;;;2.62;2.12;;;;;;;19.65;33.64;101376.80;1817194;77;20994;-75
2021/04/28 07:06:49;;;;;;;4.12;2.70;;;;;;;19.33;33.13;101384.89;1817317;79;20990;-76
2021/04/28 07:09:17;;;;;;;2.25;2.05;;;;;;;18.94;33.94;101382.81;1817276;78;21042;-75
2021/04/28 07:11:46;;;;;;;2.20;2.05;;;;;;;18.78;34.73;101394.33;1817184;79;21452;-75
2021/04/28 07:14:16;;;;;;;2.67;2.47;;;;;;;18.89;35.73;101396.11;1817241;77;21336;-75
2021/04/28 07:16:45;;;;;;;3.85;2.30;;;;;;;19.12;35.23;101395.05;1817274;78;21354;-74
2021/04/28 07:19:14;;;;;;;14.55;3.10;;;;;;;19.35;35.73;101397.09;1794872;79;21563;-75
2021/04/28 07:21:42;;;;;;;3.02;2.25;;;;;;;19.61;33.36;101396.70;1785111;80;20930;-75
2021/04/28 07:24:10;;;;;;;2.75;2.50;;;;;;;19.60;33.36;101397.16;1785041;79;20962;-74
2021/04/28 07:26:39;;;;;;;3.05;2.00;;;;;;;19.61;34.76;101396.20;1785128;79;20930;-75
2021/04/28 07:29:07;;;;;;;2.52;2.33;;;;;;;19.68;34.18;101393.36;1785085;80;21487;-74
2021/04/28 07:31:36;;;;;;;3.05;2.47;;;;;;;19.95;34.33;101397.30;1785058;79;20934;-79
2021/04/28 07:34:04;;;;;;;2.08;1.98;;;;;;;20.13;32.71;101396.16;1785328;80;20935;-83
2021/04/28 07:36:33;;;;;;;2.30;2.10;;;;;;;20.20;32.50;101397.80;1785822;80;20930;-82
2021/04/28 07:39:06;;;;;;;3.00;2.75;;;;;;;20.42;32.19;101392.23;1787014;80;20935;-82
2021/04/28 07:41:34;;;;;;;3.08;2.22;;;;;;;20.68;30.64;101392.59;1791856;79;21355;-81
2021/04/28 07:44:03;;;;;;;2.15;1.95;;;;;;;20.82;30.71;101394.00;1799102;79;21400;-81
2021/04/28 07:46:33;;;;;;;2.40;2.22;;;;;;;20.61;30.14;101395.47;1799825;78;21045;-71
2021/04/28 07:49:04;;;;;;;2.65;2.45;;;;;;;20.48;30.97;101393.53;1797215;79;21476;-70
2021/04/28 07:51:33;;;;;;;3.95;2.40;;;;;;;20.51;31.62;101401.23;1797301;79;20902;-70
2021/04/28 07:54:04;;;;;;;3.20;2.80;;;;;;;20.53;31.77;101393.95;1796607;79;21365;-70
2021/04/28 07:56:33;;;;;;;2.27;2.17;;;;;;;20.65;31.57;101394.69;1797054;79;21000;-73
2021/04/28 07:59:01;;;;;;;2.17;1.98;;;;;;;20.90;30.75;101394.16;1797030;79;20977;-72
2021/04/28 08:01:29;;;;;;;7.55;2.45;;;;;;;21.10;30.18;101395.48;1796996;79;20985;-72
2021/04/28 08:03:59;;;;;;;4.10;1.95;;;;;;;21.21;30.28;101389.13;1797099;79;21017;-71
2021/04/28 08:06:27;;;;;;;3.17;2.40;;;;;;;21.32;29.09;101389.83;1797104;78;21477;-72
2021/04/28 08:08:55;;;;;;;3.50;1.60;;;;;;;21.51;30.21;101388.96;1797094;78;21416;-72
2021/04/28 08:11:25;;;;;;;2.40;2.17;;;;;;;21.67;30.17;101387.52;1796932;79;20929;-72
2021/04/28 08:13:54;;;;;;;3.10;1.87;;;;;;;21.81;30.04;101392.87;1797100;79;20936;-72
2021/04/28 08:16:22;;;;;;;2.08;1.87;;;;;;;22.03;29.52;101392.98;1797066;78;20914;-71
2021/04/28 08:18:51;;;;;;;1.87;1.77;;;;;;;21.86;28.38;101388.78;1797066;78;21767;-73
2021/04/28 08:21:19;;;;;;;2.00;1.85;;;;;;;21.81;30.15;101394.20;1796999;79;21571;-70
2021/04/28 08:23:47;;;;;;;2.72;2.50;;;;;;;21.78;29.74;101396.67;1797107;79;21040;-73
2021/04/28 08:26:15;;;;;;;2.15;1.95;;;;;;;21.76;28.47;101395.14;1796989;78;20922;-72
2021/04/28 08:28:46;;;;;;;3.55;1.80;;;;;;;21.50;28.54;101392.63;1797052;79;20934;-73
2021/04/28 08:31:16;;;;;;;2.42;2.25;;;;;;;21.53;29.48;101392.83;1797213;79;21332;-72
2021/04/28 08:33:45;;;;;;;3.90;2.10;;;;;;;21.69;28.50;101395.72;1797059;79;20985;-71
2021/04/28 08:36:14;;;;;;;3.30;2.20;;;;;;;21.87;29.72;101393.63;1797130;79;20930;-72
2021/04/28 08:38:44;;;;;;;1.80;1.70;;;;;;;21.98;29.29;101401.95;1796949;79;20938;-71
2021/04/28 08:41:12;;;;;;;2.83;1.67;;;;;;;22.02;28.76;101400.67;1796987;79;21558;-72
2021/04/28 08:43:41;;;;;;;3.20;2.40;;;;;;;22.12;28.43;101391.62;1796860;79;21147;-74
2021/04/28 08:46:10;;;;;;;2.00;1.85;;;;;;;22.15;28.72;101381.97;1796922;79;20993;-72
2021/04/28 08:48:38;;;;;;;1.85;1.72;;;;;;;22.13;26.81;101395.96;1797017;79;20970;-70
2021/04/28 08:51:07;;;;;;;2.45;2.00;;;;;;;22.14;26.99;101399.00;1796985;79;21048;-72
2021/04/28 08:53:37;;;;;;;1.52;1.40;;;;;;;21.91;27.53;101391.02;1797103;78;21485;-72
2021/04/28 08:56:06;;;;;;;2.40;1.70;;;;;;;21.57;28.05;101395.56;1797017;79;21369;-71
2021/04/28 08:58:36;;;;;;;6.83;2.52;;;;;;;21.28;27.16;101392.94;1796958;79;20918;-71
2021/04/28 09:01:05;;;;;;;2.20;2.00;;;;;;;20.97;28.32;101389.59;1796964;79;21033;-71
2021/04/28 09:03:44;;;;;;;1.90;1.65;;;;;;;20.83;28.08;101384.17;1796964;79;20941;-72
2021/04/28 09:06:35;;;;;;;4.37;1.90;;;;;;;20.84;27.80;101382.70;1797071;78;21348;-72
2021/04/28 09:09:08;;;;;;;2.83;1.77;;;;;;;20.96;27.14;101384.73;1796974;79;21367;-71
2021/04/28 09:11:52;;;;;;;2.05;1.62;;;;;;;21.06;28.03;101378.91;1796898;78;21009;-72
2021/04/28 09:14:28;;;;;;;1.77;1.67;;;;;;;21.28;29.19;101377.76;1796398;79;20957;-73
2021/04/28 09:17:06;;;;;;;2.67;1.70;;;;;;;21.38;27.47;101373.72;1796973;79;21366;-72
2021/04/28 09:19:57;;;;;;;2.72;2.22;;;;;;;21.56;28.13;101371.17;1768004;79;20906;-70
2021/04/28 09:22:50;;;;;;;1.75;1.65;;;;;;;21.71;26.64;101379.06;1796960;79;21426;-71
2021/04/28 09:25:51;;;;;;;2.35;1.57;;;;;;;21.47;26.30;101379.56;1796962;78;20918;-72
2021/04/28 09:28:35;;;;;;;2.45;1.52;;;;;;;21.10;25.47;101388.31;1797129;79;21041;-71
2021/04/28 09:31:12;;;;;;;1.80;1.70;;;;;;;21.06;26.16;101377.58;1797228;79;20922;-71
2021/04/28 09:33:53;;;;;;;3.65;1.60;;;;;;;21.28;27.34;101373.76;1796897;79;21187;-72
2021/04/28 09:36:33;;;;;;;1.80;1.70;;;;;;;21.51;27.17;101376.95;1797050;79;21200;-70
2021/04/28 09:39:08;;;;;;;2.72;2.00;;;;;;;21.80;26.01;101372.00;1797036;79;20969;-71
2021/04/28 09:41:45;;;;;;;2.08;1.50;;;;;;;22.12;26.26;101370.25;1794052;78;21468;-70
2021/04/28 09:44:28;;;;;;;2.05;1.95;;;;;;;22.25;26.31;101367.73;1785159;79;20938;-72
2021/04/28 09:47:58;;;;;;;1.55;1.45;;;;;;;22.55;26.02;101359.37;1813495;79;22595;-70
2021/04/28 09:50:30;;;;;;;1.80;1.67;;;;;;;22.64;26.41;101362.97;1784140;80;20969;-71
2021/04/28 09:52:58;;;;;;;3.85;2.10;;;;;;;22.20;24.98;101365.98;1784015;80;21209;-72
2021/04/28 09:55:26;;;;;;;7.03;1.80;;;;;;;21.71;26.05;101371.05;1755859;79;20970;-72
2021/04/28 09:57:55;;;;;;;1.50;1.20;;;;;;;21.45;25.08;101381.53;1756169;80;20934;-71
2021/04/28 10:00:28;;;;;;;1.50;1.40;;;;;;;21.09;25.29;101371.11;1784110;80;21341;-71
2021/04/28 10:02:58;;;;;;;2.27;1.72;;;;;;;20.78;26.19;101373.93;1784073;79;21416;-72
2021/04/28 10:05:54;;;;;;;2.02;1.67;;;;;;;20.65;26.96;101373.36;1771091;79;20942;-71
2021/04/28 10:08:24;;;;;;;1.95;1.80;;;;;;;20.63;27.86;101367.33;1756297;80;21476;-72
2021/04/28 10:10:52;;;;;;;1.70;1.50;;;;;;;20.82;26.21;101373.17;1784035;80;20910;-72
2021/04/28 10:13:22;;;;;;;2.25;2.05;;;;;;;20.99;26.65;101375.63;1783966;80;20903;-70
2021/04/28 10:15:51;;;;;;;3.87;2.65;;;;;;;21.13;25.96;101377.02;1784059;80;20958;-71
2021/04/28 10:18:23;;;;;;;1.50;1.35;;;;;;;21.27;25.27;101380.06;1784059;80;21902;-72
2021/04/28 10:20:51;;;;;;;3.58;1.32;;;;;;;21.29;26.99;101378.59;1783950;80;21487;-71
2021/04/28 10:23:20;;;;;;;2.62;1.50;;;;;;;21.40;25.82;101375.76;1783801;80;21079;-70
2021/04/28 10:25:50;;;;;;;1.32;1.30;;;;;;;21.39;24.66;101366.55;1783972;80;21076;-72
2021/04/28 10:28:20;;;;;;;2.35;1.45;;;;;;;21.33;24.89;101369.32;1783958;79;20958;-73
2021/04/28 10:30:49;;;;;;;1.75;1.50;;;;;;;21.20;25.66;101364.28;1784051;80;21357;-73
2021/04/28 10:33:28;;;;;;;2.10;1.75;;;;;;;21.16;26.01;101366.88;1783928;80;20997;-71
2021/04/28 10:35:58;;;;;;;2.37;1.20;;;;;;;21.31;25.89;101358.78;1782016;80;21038;-71
2021/04/28 10:38:26;;;;;;;4.03;1.47;;;;;;;21.49;25.56;101358.91;1783741;79;20994;-70
2021/04/28 10:40:55;;;;;;;1.67;1.57;;;;;;;21.60;24.64;101355.22;1784301;80;20938;-71
2021/04/28 10:43:35;;;;;;;3.35;1.42;;;;;;;21.71;26.21;101352.37;1783181;80;21348;-71
2021/04/28 10:46:20;;;;;;;1.42;1.02;;;;;;;21.84;24.99;101350.70;1782869;79;21496;-71
2021/04/28 10:48:52;;;;;;;1.95;1.62;;;;;;;21.93;24.43;101355.66;1767451;81;20947;-70
2021/04/28 10:51:38;;;;;;;1.62;1.52;;;;;;;21.85;24.95;101356.88;1770566;81;21006;-70
2021/04/28 10:54:27;;;;;;;2.77;1.30;;;;;;;21.61;24.93;101358.26;1770612;80;20966;-72
2021/04/28 10:57:06;;;;;;;2.08;1.77;;;;;;;21.48;25.22;101360.41;1770558;79;21365;-71
2021/04/28 10:59:38;;;;;;;1.70;1.60;;;;;;;21.55;25.86;101358.00;1769904;79;21041;-70
2021/04/28 11:02:11;;;;;;;3.52;1.50;;;;;;;21.53;24.32;101366.14;1769992;79;21388;-72
2021/04/28 11:04:47;;;;;;;2.67;1.82;;;;;;;21.32;23.90;101357.81;1770038;79;20974;-73
2021/04/28 11:07:43;;;;;;;1.50;1.40;;;;;;;21.03;24.66;101356.53;1769922;81;21574;-72
2021/04/28 11:10:32;;;;;;;3.27;1.40;;;;;;;20.76;24.06;101357.73;1769729;81;21321;-72
2021/04/28 11:13:04;;;;;;;1.37;1.27;;;;;;;;;;1769937;81;20982;-72
2021/04/28 11:15:53;;;;;;;1.17;1.07;;;;;;;20.88;25.42;101342.79;1770006;81;20998;-71
2021/04/28 11:18:38;;;;;;;1.42;1.20;;;;;;;21.06;25.48;101352.23;1769928;81;20990;-72
2021/04/28 11:21:23;;;;;;;2.55;1.47;;;;;;;20.97;24.70;101347.77;1769996;81;21033;-71
2021/04/28 11:24:14;;;;;;;1.17;1.05;;;;;;;20.73;25.68;101343.36;1769954;81;21368;-70
2021/04/28 11:26:50;;;;;;;1.20;1.00;;;;;;;20.64;25.60;101337.88;1769860;79;21007;-71
2021/04/28 11:29:20;;;;;;;1.67;1.57;;;;;;;20.60;26.64;101334.30;1769914;81;20951;-72
2021/04/28 11:31:59;;;;;;;2.27;1.50;;;;;;;20.62;26.87;101335.84;1769939;81;21042;-72
2021/04/28 11:34:34;;;;;;;2.25;1.47;;;;;;;20.59;26.00;101334.80;1770036;79;20986;-72
2021/04/28 11:37:09;;;;;;;1.85;1.05;;;;;;;20.41;26.07;101325.77;1770007;79;21367;-74
2021/04/28 11:40:03;;;;;;;;;;;;;;;;;;;;;
2021/04/28 11:42:45;;;;;;;1.37;1.27;;;;;;;20.19;25.78;101324.22;1868570;76;28195;-73
2021/04/28 11:45:13;;;;;;;1.67;1.52;;;;;;;20.06;26.01;101325.80;1852886;76;20915;-73
2021/04/28 11:47:42;;;;;;;3.62;1.92;;;;;;;20.03;26.68;101329.58;1852845;77;21419;-74
2021/04/28 11:50:11;;;;;;;4.28;1.25;;;;;;;19.87;26.68;101327.41;1852628;77;21013;-73
2021/04/28 11:52:39;;;;;;;1.75;1.22;;;;;;;19.64;26.40;101331.22;1852843;77;20931;-73